EGWA weather

Andover Airfield
Andover, England, United Kingdom

Public forecast

Using degrees Celsius for public forecast. Weather courtesy of forecast.io.

Closest aviation weather report (METAR) to Andover Airfield

Closest report is Middle Wallop Airfield, 4.4 nm (8.1 km) SSW. Retrieved 2020/06/06 02:50 UTC (39 minutes ago):

EGVP 060250Z AUTO 27007KT 9999 NCD 06/04 Q1000

Closest aviation forecast (TAF) to Andover Airfield

Forecast is more than 12 hours old.

Closest forecast is Middle Wallop Airfield, 4.4 nm (8.1 km) SSW. Retrieved 2019/01/07 18:33 UTC (1 year ago):

TAF EGVP 071727Z 0718/0821 CNL